Time;durP1;ratioP1;P1;durP2;ratioP2;P2;SDS_P1;SDS_P2;PMS_P1;PMS_P2;Temp;Humidity;BMP_temperature;BMP_pressure;BME280_temperature;BME280_humidity;BME280_pressure;Samples;Min_cycle;Max_cycle;Signal;HPM_P1;HPM_P2
2021/12/13 00:02:05;;;;;;;32.42;20.58;;;;;;;;;;5111563;27;20027;-46
2021/12/13 00:04:35;;;;;;;30.27;22.70;;;;;;;;;;5114298;27;20060;-46
2021/12/13 00:07:04;;;;;;;34.17;24.73;;;;;;;;;;5112330;27;20058;-44
2021/12/13 00:09:31;;;;;;;37.90;25.02;;;;;;;;;;5114239;27;20019;-48
2021/12/13 00:12:00;;;;;;;25.08;22.42;;;;;;;;;;5111014;27;20065;-44
2021/12/13 00:14:27;;;;;;;27.40;20.88;;;;;;;;;;5116877;27;20042;-46
2021/12/13 00:16:59;;;;;;;29.77;21.55;;;;;;;;;;5113772;27;20446;-48
2021/12/13 00:19:30;;;;;;;24.92;19.17;;;;;;;;;;5114396;27;20055;-45
2021/12/13 00:21:58;;;;;;;39.30;21.23;;;;;;;;;;5113444;27;20038;-44
2021/12/13 00:24:28;;;;;;;34.75;20.45;;;;;;;;;;5112444;27;20026;-49
2021/12/13 00:27:03;;;;;;;34.97;21.30;;;;;;;;;;5113411;27;20092;-48
2021/12/13 00:29:37;;;;;;;33.03;23.20;;;;;;;;;;5109805;27;20027;-47
2021/12/13 00:32:10;;;;;;;21.83;17.67;;;;;;;;;;5111856;27;20046;-45
2021/12/13 00:34:45;;;;;;;22.00;16.75;;;;;;;;;;5119132;27;20038;-47
2021/12/13 00:37:20;;;;;;;20.02;17.73;;;;;;;;;;5111331;27;20022;-49
2021/12/13 00:39:57;;;;;;;21.88;16.80;;;;;;;;;;5110960;27;20498;-45
2021/12/13 00:42:24;;;;;;;23.50;21.00;;;;;;;;;;5110103;27;20056;-45
2021/12/13 00:44:52;;;;;;;28.92;23.77;;;;;;;;;;5108026;27;20039;-44
2021/12/13 00:47:20;;;;;;;29.05;25.38;;;;;;;;;;5114123;27;20023;-46
2021/12/13 00:49:46;;;;;;;31.73;24.83;;;;;;;;;;5114248;27;20068;-44
2021/12/13 00:52:14;;;;;;;43.22;26.63;;;;;;;;;;5111668;27;20184;-44
2021/12/13 00:54:39;;;;;;;32.10;21.98;;;;;;;;;;5112514;27;20126;-44
2021/12/13 00:57:24;;;;;;;30.73;21.98;;;;;;;;;;5113061;27;20144;-46
2021/12/13 00:59:54;;;;;;;23.90;19.67;;;;;;;;;;5112584;27;20019;-48
2021/12/13 01:02:30;;;;;;;32.17;21.52;;;;;;;;;;5112854;27;20105;-49
2021/12/13 01:05:00;;;;;;;32.03;24.42;;;;;;;;;;5115379;27;20134;-47
2021/12/13 01:07:44;;;;;;;29.08;23.00;;;;;;;;;;5097053;27;20051;-44
2021/12/13 01:10:28;;;;;;;36.83;21.08;;;;;;;;;;5116175;27;20058;-44
2021/12/13 01:12:54;;;;;;;24.85;18.63;;;;;;;;;;5113956;27;20134;-47
2021/12/13 01:15:29;;;;;;;21.63;18.20;;;;;;;;;;5117043;27;20554;-44
2021/12/13 01:18:03;;;;;;;20.08;17.48;;;;;;;;;;5116284;27;20110;-45
2021/12/13 01:20:33;;;;;;;32.28;21.00;;;;;;;;;;5116905;28;20403;-46
2021/12/13 01:23:07;;;;;;;28.70;22.15;;;;;;;;;;5115400;27;20197;-46
2021/12/13 01:25:43;;;;;;;22.23;20.00;;;;;;;;;;5113655;28;20050;-45
2021/12/13 01:28:26;;;;;;;23.30;16.75;;;;;;;;;;5114650;28;20111;-44
2021/12/13 01:30:54;;;;;;;20.25;15.88;;;;;;;;;;5114222;28;20051;-46
2021/12/13 01:33:20;;;;;;;15.93;14.15;;;;;;;;;;5116258;28;20019;-44
2021/12/13 01:35:46;;;;;;;20.10;14.95;;;;;;;;;;5118058;28;20122;-45
2021/12/13 01:38:18;;;;;;;18.42;12.10;;;;;;;;;;5116203;28;20379;-48
2021/12/13 01:40:43;;;;;;;;;;;;;;;;;;5111931;28;20114;-45
2021/12/13 01:43:13;;;;;;;18.57;13.57;;;;;;;;;;5117517;28;19982;-44
2021/12/13 01:45:40;;;;;;;19.48;12.80;;;;;;;;;;5114000;28;20034;-47
2021/12/13 01:48:12;;;;;;;16.33;10.30;;;;;;;;;;5115105;28;20064;-47
2021/12/13 01:50:49;;;;;;;16.73;11.38;;;;;;;;;;5116170;28;20023;-48
2021/12/13 01:53:16;;;;;;;17.65;11.82;;;;;;;;;;5120064;27;20039;-45
2021/12/13 01:55:45;;;;;;;15.90;12.45;;;;;;;;;;5117769;27;20050;-48
2021/12/13 02:01:09;;;;;;;11.57;8.85;;;;;;;;;;5122976;27;20022;-44
2021/12/13 02:03:38;;;;;;;20.33;11.93;;;;;;;;;;5120907;27;20090;-45
2021/12/13 02:06:03;;;;;;;12.00;8.98;;;;;;;;;;5121035;27;20277;-45
2021/12/13 02:08:29;;;;;;;12.60;9.10;;;;;;;;;;5122102;27;20472;-46
2021/12/13 02:10:55;;;;;;;16.25;10.05;;;;;;;;;;5119067;27;20023;-47
2021/12/13 02:13:22;;;;;;;12.55;9.63;;;;;;;;;;5119971;27;20053;-48
2021/12/13 02:18:38;;;;;;;13.02;11.02;;;;;;;;;;5116845;27;20018;-46
2021/12/13 02:21:07;;;;;;;16.65;11.48;;;;;;;;;;5117924;27;20020;-47
2021/12/13 02:23:34;;;;;;;11.23;8.25;;;;;;;;;;5117639;27;20072;-46
2021/12/13 02:25:59;;;;;;;9.57;6.63;;;;;;;;;;5121192;27;20034;-47
2021/12/13 02:28:26;;;;;;;12.27;8.20;;;;;;;;;;5122892;27;20024;-46
2021/12/13 02:30:54;;;;;;;15.90;11.07;;;;;;;;;;5117483;27;20043;-48
2021/12/13 02:33:40;;;;;;;14.05;7.38;;;;;;;;;;5115807;27;20313;-46
2021/12/13 02:36:11;;;;;;;11.73;8.27;;;;;;;;;;5116184;27;20067;-44
2021/12/13 02:38:37;;;;;;;10.80;6.35;;;;;;;;;;5121395;27;20023;-46
2021/12/13 02:41:03;;;;;;;21.83;8.32;;;;;;;;;;5119435;27;20028;-45
2021/12/13 02:43:32;;;;;;;14.43;7.55;;;;;;;;;;5115286;27;20705;-50
2021/12/13 02:45:58;;;;;;;12.45;8.27;;;;;;;;;;5115706;27;20027;-46
2021/12/13 02:48:26;;;;;;;10.65;8.27;;;;;;;;;;5120162;27;20138;-45
2021/12/13 02:51:10;;;;;;;20.92;8.32;;;;;;;;;;5119419;27;20026;-45
2021/12/13 02:53:40;;;;;;;8.85;7.07;;;;;;;;;;5116865;27;20050;-43
2021/12/13 02:56:06;;;;;;;13.38;8.52;;;;;;;;;;5118066;27;20024;-46
2021/12/13 02:58:32;;;;;;;11.50;8.38;;;;;;;;;;5115670;27;20040;-49
2021/12/13 03:01:04;;;;;;;25.15;7.32;;;;;;;;;;5117288;27;20011;-43
2021/12/13 03:03:31;;;;;;;14.48;7.15;;;;;;;;;;5118524;27;20015;-47
2021/12/13 03:05:58;;;;;;;9.13;6.03;;;;;;;;;;5119269;27;20034;-47
2021/12/13 03:08:30;;;;;;;7.72;5.90;;;;;;;;;;5117384;27;20024;-46
2021/12/13 03:10:59;;;;;;;18.23;6.15;;;;;;;;;;5121577;27;20024;-46
2021/12/13 03:13:24;;;;;;;8.70;6.60;;;;;;;;;;5117253;27;20086;-48
2021/12/13 03:15:52;;;;;;;7.88;5.15;;;;;;;;;;5110403;27;20041;-48
2021/12/13 03:18:20;;;;;;;10.00;5.72;;;;;;;;;;5115982;27;20049;-49
2021/12/13 03:21:03;;;;;;;5.53;3.67;;;;;;;;;;5121600;27;20090;-46
2021/12/13 03:23:32;;;;;;;8.88;3.92;;;;;;;;;;5113324;27;20015;-44
2021/12/13 03:26:16;;;;;;;9.02;4.40;;;;;;;;;;5099292;27;20114;-45
2021/12/13 03:28:56;;;;;;;10.85;5.95;;;;;;;;;;5117555;27;20020;-49
2021/12/13 03:31:25;;;;;;;8.18;5.78;;;;;;;;;;5118011;27;20105;-48
2021/12/13 03:33:51;;;;;;;15.43;6.53;;;;;;;;;;5118384;27;20376;-45
2021/12/13 03:36:19;;;;;;;9.48;6.80;;;;;;;;;;5116898;27;20501;-47
2021/12/13 03:38:47;;;;;;;24.23;8.85;;;;;;;;;;5113637;27;20024;-46
2021/12/13 03:41:16;;;;;;;15.57;9.90;;;;;;;;;;5116453;27;20088;-47
2021/12/13 03:43:50;;;;;;;15.50;10.65;;;;;;;;;;5115703;27;20373;-46
2021/12/13 03:46:16;;;;;;;16.75;7.13;;;;;;;;;;5118208;27;20044;-47
2021/12/13 03:48:43;;;;;;;9.82;6.03;;;;;;;;;;5114368;27;20484;-45
2021/12/13 03:51:11;;;;;;;14.38;11.48;;;;;;;;;;5115135;27;20096;-45
2021/12/13 03:53:36;;;;;;;13.85;9.10;;;;;;;;;;5118167;27;20867;-46
2021/12/13 03:56:08;;;;;;;10.77;8.38;;;;;;;;;;5117507;27;20211;-45
2021/12/13 03:58:36;;;;;;;20.13;9.27;;;;;;;;;;5117130;27;20023;-47
2021/12/13 04:01:15;;;;;;;16.77;9.57;;;;;;;;;;5120126;27;20031;-43
2021/12/13 04:03:41;;;;;;;41.97;23.75;;;;;;;;;;5119237;27;20018;-48
2021/12/13 04:06:07;;;;;;;32.70;17.52;;;;;;;;;;5115799;27;20020;-45
2021/12/13 04:08:33;;;;;;;41.05;19.75;;;;;;;;;;5117065;27;20023;-48
2021/12/13 04:11:00;;;;;;;34.67;17.77;;;;;;;;;;5115050;27;20660;-44
2021/12/13 04:13:28;;;;;;;33.20;20.60;;;;;;;;;;5113497;27;20023;-48
2021/12/13 04:16:15;;;;;;;27.95;14.63;;;;;;;;;;5120698;27;20058;-45
2021/12/13 04:21:21;;;;;;;26.42;19.40;;;;;;;;;;5119792;27;20072;-46
2021/12/13 04:23:50;;;;;;;19.73;13.65;;;;;;;;;;5117501;27;20015;-43
2021/12/13 04:26:16;;;;;;;22.02;12.45;;;;;;;;;;5113196;27;20031;-44
2021/12/13 04:28:43;;;;;;;19.13;9.30;;;;;;;;;;5117711;27;20023;-45
2021/12/13 04:31:10;;;;;;;27.08;13.13;;;;;;;;;;5114532;27;20027;-46
2021/12/13 04:33:37;;;;;;;21.80;13.93;;;;;;;;;;5113373;27;20031;-45
2021/12/13 04:36:26;;;;;;;24.23;12.45;;;;;;;;;;5115332;27;20047;-46
2021/12/13 04:39:10;;;;;;;21.13;7.35;;;;;;;;;;5106817;27;20499;-46
2021/12/13 04:41:42;;;;;;;24.13;12.18;;;;;;;;;;5114248;27;20023;-48
2021/12/13 04:44:19;;;;;;;13.48;10.68;;;;;;;;;;5118204;27;20019;-45
2021/12/13 04:46:47;;;;;;;21.33;10.82;;;;;;;;;;5116622;27;20033;-47
2021/12/13 04:49:14;;;;;;;16.25;8.85;;;;;;;;;;5115950;27;20076;-47
2021/12/13 04:51:46;;;;;;;9.77;7.57;;;;;;;;;;5113655;27;20384;-43
2021/12/13 04:54:14;;;;;;;10.70;8.13;;;;;;;;;;5114472;27;20068;-47
2021/12/13 04:56:40;;;;;;;19.25;6.03;;;;;;;;;;5113761;27;20049;-46
2021/12/13 04:59:06;;;;;;;9.38;6.13;;;;;;;;;;5115096;27;20426;-47
2021/12/13 05:01:32;;;;;;;10.45;6.82;;;;;;;;;;5118223;27;20019;-49
2021/12/13 05:04:00;;;;;;;7.32;4.28;;;;;;;;;;5114790;27;20020;-45
2021/12/13 05:06:28;;;;;;;5.85;4.13;;;;;;;;;;5117120;27;20518;-49
2021/12/13 05:08:56;;;;;;;15.85;4.47;;;;;;;;;;5114224;27;20501;-44
2021/12/13 05:11:23;;;;;;;14.02;4.35;;;;;;;;;;5116226;27;20063;-44
2021/12/13 05:13:50;;;;;;;5.18;4.13;;;;;;;;;;5114363;27;20019;-45
2021/12/13 05:16:17;;;;;;;7.93;3.90;;;;;;;;;;5115632;27;20019;-46
2021/12/13 05:18:47;;;;;;;6.65;4.25;;;;;;;;;;5114831;27;20038;-46
2021/12/13 05:21:15;;;;;;;8.98;5.28;;;;;;;;;;5113322;27;20159;-44
2021/12/13 05:23:51;;;;;;;9.45;7.32;;;;;;;;;;5117955;28;20020;-47
2021/12/13 05:26:28;;;;;;;9.80;6.22;;;;;;;;;;5113904;28;20476;-46
2021/12/13 05:28:53;;;;;;;11.70;7.90;;;;;;;;;;5113417;27;20050;-48
2021/12/13 05:31:23;;;;;;;11.35;8.00;;;;;;;;;;5114228;28;20640;-43
2021/12/13 05:33:50;;;;;;;14.27;6.95;;;;;;;;;;5115140;28;20403;-44
2021/12/13 05:36:23;;;;;;;20.55;9.02;;;;;;;;;;5117785;27;20027;-44
2021/12/13 05:38:50;;;;;;;11.85;10.27;;;;;;;;;;5113424;28;20743;-43
2021/12/13 05:41:24;;;;;;;9.05;7.72;;;;;;;;;;5111311;28;20016;-45
2021/12/13 05:43:52;;;;;;;32.53;26.30;;;;;;;;;;5113269;28;20020;-43
2021/12/13 05:46:23;;;;;;;11.68;8.77;;;;;;;;;;5112519;28;20567;-43
2021/12/13 05:48:48;;;;;;;8.40;5.90;;;;;;;;;;5115515;28;20031;-44
2021/12/13 05:51:20;;;;;;;10.75;6.25;;;;;;;;;;5114849;28;20532;-45
2021/12/13 05:53:51;;;;;;;11.52;6.40;;;;;;;;;;5117127;28;20112;-49
2021/12/13 05:56:17;;;;;;;8.10;6.35;;;;;;;;;;5118483;28;20162;-48
2021/12/13 05:58:42;;;;;;;12.00;5.25;;;;;;;;;;5114458;28;20043;-45
2021/12/13 06:01:12;;;;;;;9.30;5.47;;;;;;;;;;5113624;28;20034;-48
2021/12/13 06:03:39;;;;;;;13.90;6.53;;;;;;;;;;5113031;28;20023;-46
2021/12/13 06:06:06;;;;;;;6.45;5.25;;;;;;;;;;5112063;28;20036;-47
2021/12/13 06:08:33;;;;;;;15.48;5.95;;;;;;;;;;5112350;28;20544;-45
2021/12/13 06:11:01;;;;;;;19.05;7.05;;;;;;;;;;5118434;28;20392;-44
2021/12/13 06:13:36;;;;;;;4.15;3.17;;;;;;;;;;5115721;28;20572;-45
2021/12/13 06:16:02;;;;;;;7.70;5.30;;;;;;;;;;5112595;28;20028;-43
2021/12/13 06:18:35;;;;;;;8.73;6.00;;;;;;;;;;5115000;27;20024;-44
2021/12/13 06:21:07;;;;;;;12.95;7.55;;;;;;;;;;5113286;28;20115;-49
2021/12/13 06:23:32;;;;;;;;;;;;;;;;;;5114602;28;20020;-44
2021/12/13 06:25:59;;;;;;;27.35;9.77;;;;;;;;;;5114385;28;19922;-45
2021/12/13 06:28:29;;;;;;;16.70;12.05;;;;;;;;;;5098300;28;20385;-42
2021/12/13 06:30:57;;;;;;;14.55;8.82;;;;;;;;;;5114466;28;20861;-41
2021/12/13 06:33:23;;;;;;;9.43;8.30;;;;;;;;;;5111716;28;20024;-39
2021/12/13 06:35:51;;;;;;;19.95;12.98;;;;;;;;;;5109807;28;20449;-40
2021/12/13 06:38:19;;;;;;;16.33;13.32;;;;;;;;;;5114674;28;20011;-41
2021/12/13 06:40:47;;;;;;;17.02;12.48;;;;;;;;;;5116306;27;20673;-39
2021/12/13 06:43:24;;;;;;;17.27;13.30;;;;;;;;;;5118454;27;20019;-41
2021/12/13 06:45:50;;;;;;;15.45;10.95;;;;;;;;;;5115855;27;20046;-41
2021/12/13 06:48:15;;;;;;;23.42;12.57;;;;;;;;;;5119481;27;20584;-40
2021/12/13 06:50:40;;;;;;;22.15;14.80;;;;;;;;;;5118532;27;20488;-39
2021/12/13 06:53:09;;;;;;;23.52;14.30;;;;;;;;;;5113732;27;20131;-45
2021/12/13 06:55:34;;;;;;;26.77;21.77;;;;;;;;;;5119548;27;20020;-42
2021/12/13 06:58:00;;;;;;;49.63;35.88;;;;;;;;;;5119464;27;20049;-40
2021/12/13 07:00:26;;;;;;;61.83;31.45;;;;;;;;;;5116513;27;20391;-39
2021/12/13 07:02:58;;;;;;;56.60;37.47;;;;;;;;;;5118712;27;20021;-39
2021/12/13 07:05:31;;;;;;;34.58;23.63;;;;;;;;;;5118944;27;20053;-39
2021/12/13 07:08:02;;;;;;;25.35;18.55;;;;;;;;;;5116847;27;20058;-42
2021/12/13 07:10:30;;;;;;;21.52;14.80;;;;;;;;;;5114247;27;20027;-42
2021/12/13 07:12:58;;;;;;;20.30;11.73;;;;;;;;;;5122480;27;20076;-41
2021/12/13 07:15:29;;;;;;;21.55;15.90;;;;;;;;;;5118374;27;20033;-42
2021/12/13 07:18:10;;;;;;;26.58;17.88;;;;;;;;;;5115481;27;20488;-43
2021/12/13 07:20:40;;;;;;;32.07;20.87;;;;;;;;;;5114722;27;20051;-41
2021/12/13 07:23:06;;;;;;;26.40;20.67;;;;;;;;;;5096607;27;20218;-42
2021/12/13 07:25:34;;;;;;;31.35;19.58;;;;;;;;;;5116874;27;20113;-40
2021/12/13 07:28:01;;;;;;;26.20;21.48;;;;;;;;;;5116683;27;20023;-44
2021/12/13 07:30:28;;;;;;;44.83;26.60;;;;;;;;;;5115614;27;20047;-45
2021/12/13 07:32:57;;;;;;;34.55;25.63;;;;;;;;;;5116502;27;20016;-41
2021/12/13 07:35:23;;;;;;;44.33;26.60;;;;;;;;;;5117365;27;20090;-39
2021/12/13 07:37:55;;;;;;;34.95;27.20;;;;;;;;;;5116844;27;20513;-44
2021/12/13 07:40:28;;;;;;;50.15;32.90;;;;;;;;;;5118514;27;20016;-45
2021/12/13 07:42:53;;;;;;;47.85;37.40;;;;;;;;;;5114684;27;20064;-45
2021/12/13 07:45:48;;;;;;;60.45;36.72;;;;;;;;;;5119380;27;20027;-44
2021/12/13 07:48:17;;;;;;;54.90;36.10;;;;;;;;;;5019163;27;20034;-47
2021/12/13 07:50:43;;;;;;;48.83;32.20;;;;;;;;;;5117436;27;20130;-45
2021/12/13 07:53:11;;;;;;;55.92;34.80;;;;;;;;;;5115395;27;20059;-45
2021/12/13 07:55:41;;;;;;;61.00;47.08;;;;;;;;;;5117721;27;20077;-44
2021/12/13 07:58:06;;;;;;;62.97;42.28;;;;;;;;;;5117546;27;20019;-45
2021/12/13 08:00:34;;;;;;;42.22;34.40;;;;;;;;;;5111914;27;20381;-44
2021/12/13 08:03:06;;;;;;;56.88;35.33;;;;;;;;;;5114767;27;20051;-44
2021/12/13 08:05:38;;;;;;;35.95;31.92;;;;;;;;;;5116035;27;20515;-47
2021/12/13 08:08:04;;;;;;;84.90;62.53;;;;;;;;;;5112477;27;20524;-39
2021/12/13 08:10:31;;;;;;;95.65;69.38;;;;;;;;;;5115690;27;20134;-42
2021/12/13 08:13:06;;;;;;;98.38;81.22;;;;;;;;;;5115648;27;20025;-39
2021/12/13 08:15:40;;;;;;;89.45;74.28;;;;;;;;;;5112362;27;20093;-39
2021/12/13 08:18:08;;;;;;;103.15;81.18;;;;;;;;;;5112043;27;20081;-42
2021/12/13 08:20:56;;;;;;;107.72;77.95;;;;;;;;;;5111243;27;20035;-39
2021/12/13 08:23:26;;;;;;;93.97;64.78;;;;;;;;;;5085943;27;20092;-40
2021/12/13 08:25:53;;;;;;;84.35;66.50;;;;;;;;;;5116432;27;20027;-41
2021/12/13 08:28:20;;;;;;;110.40;81.95;;;;;;;;;;5114670;27;20022;-40
2021/12/13 08:30:48;;;;;;;93.70;77.72;;;;;;;;;;5112278;27;20031;-40
2021/12/13 08:33:18;;;;;;;152.65;105.13;;;;;;;;;;5117788;27;20051;-40
2021/12/13 08:35:56;;;;;;;124.25;96.60;;;;;;;;;;5111585;27;20409;-43
2021/12/13 08:38:30;;;;;;;118.43;92.43;;;;;;;;;;5114583;27;20098;-41
2021/12/13 08:40:57;;;;;;;85.18;72.68;;;;;;;;;;5114765;27;20027;-43
2021/12/13 08:43:52;;;;;;;60.60;47.55;;;;;;;;;;5116669;27;20102;-42
2021/12/13 08:46:26;;;;;;;73.63;55.03;;;;;;;;;;5033481;28;20137;-43
2021/12/13 08:48:52;;;;;;;71.40;48.35;;;;;;;;;;5117580;27;20030;-43
2021/12/13 08:51:22;;;;;;;73.18;50.65;;;;;;;;;;5114657;27;20024;-41
2021/12/13 08:53:50;;;;;;;68.72;51.22;;;;;;;;;;5116408;27;20068;-41
2021/12/13 08:56:20;;;;;;;74.10;50.10;;;;;;;;;;5118016;27;20027;-42
2021/12/13 08:58:53;;;;;;;65.70;46.67;;;;;;;;;;5113206;27;20047;-40
2021/12/13 09:01:19;;;;;;;66.72;42.17;;;;;;;;;;5113279;27;20487;-45
2021/12/13 09:03:48;;;;;;;76.95;51.17;;;;;;;;;;5113661;27;20032;-45
2021/12/13 09:06:17;;;;;;;70.53;52.80;;;;;;;;;;5115714;27;20423;-45
2021/12/13 09:08:45;;;;;;;76.68;54.13;;;;;;;;;;5119403;27;20024;-48
2021/12/13 09:11:16;;;;;;;76.65;56.22;;;;;;;;;;5120194;27;20022;-46
2021/12/13 09:13:49;;;;;;;73.80;48.75;;;;;;;;;;5113533;27;20110;-46
2021/12/13 09:16:18;;;;;;;74.82;46.67;;;;;;;;;;5118951;27;20027;-48
2021/12/13 09:18:44;;;;;;;53.67;41.55;;;;;;;;;;5121268;27;20053;-43
2021/12/13 09:21:10;;;;;;;50.08;32.17;;;;;;;;;;5118772;27;20472;-45
2021/12/13 09:23:38;;;;;;;54.25;35.00;;;;;;;;;;5116344;27;20042;-45
2021/12/13 09:26:08;;;;;;;59.97;37.40;;;;;;;;;;5114314;28;20023;-42
2021/12/13 09:28:48;;;;;;;60.00;38.53;;;;;;;;;;5109961;28;20131;-44
2021/12/13 09:31:16;;;;;;;66.90;47.33;;;;;;;;;;5114541;28;20019;-45
2021/12/13 09:33:46;;;;;;;75.38;45.42;;;;;;;;;;5113012;28;20043;-44
2021/12/13 09:36:16;;;;;;;88.53;54.95;;;;;;;;;;5115854;28;20072;-49
2021/12/13 09:38:44;;;;;;;55.88;36.65;;;;;;;;;;5113048;28;20016;-46
2021/12/13 09:41:09;;;;;;;47.58;32.80;;;;;;;;;;5117109;28;20034;-48
2021/12/13 09:43:51;;;;;;;45.80;35.35;;;;;;;;;;5115649;28;20023;-49
2021/12/13 09:46:37;;;;;;;39.05;31.65;;;;;;;;;;5112181;28;20024;-44
2021/12/13 09:49:05;;;;;;;42.88;31.65;;;;;;;;;;5114827;28;20028;-41
2021/12/13 09:51:33;;;;;;;64.40;34.90;;;;;;;;;;5119275;28;20024;-48
2021/12/13 09:54:00;;;;;;;40.47;28.90;;;;;;;;;;5113663;28;20020;-47
2021/12/13 09:56:28;;;;;;;37.30;26.40;;;;;;;;;;5113243;28;20072;-47
2021/12/13 09:58:56;;;;;;;34.67;25.92;;;;;;;;;;5117708;28;20016;-49
2021/12/13 10:01:25;;;;;;;44.60;25.85;;;;;;;;;;5111987;28;20015;-45
2021/12/13 10:03:53;;;;;;;40.05;28.63;;;;;;;;;;5115213;28;20031;-48
2021/12/13 10:06:22;;;;;;;34.08;26.15;;;;;;;;;;5118425;28;20056;-47
2021/12/13 10:08:50;;;;;;;59.95;37.25;;;;;;;;;;5113164;28;20027;-48
2021/12/13 10:11:24;;;;;;;69.53;41.00;;;;;;;;;;5117291;28;20023;-43
2021/12/13 10:13:51;;;;;;;47.72;40.75;;;;;;;;;;5116111;27;20027;-46
2021/12/13 10:16:28;;;;;;;56.53;38.40;;;;;;;;;;5115666;27;20062;-46
2021/12/13 10:18:55;;;;;;;46.90;40.80;;;;;;;;;;5117200;27;20138;-43
2021/12/13 10:21:27;;;;;;;57.58;49.08;;;;;;;;;;5118483;27;20015;-44
2021/12/13 10:23:58;;;;;;;55.28;46.25;;;;;;;;;;5116449;27;20490;-49
2021/12/13 10:26:26;;;;;;;54.22;38.95;;;;;;;;;;5124084;27;20027;-43
2021/12/13 10:28:55;;;;;;;36.88;32.30;;;;;;;;;;5117006;27;20024;-46
2021/12/13 10:31:24;;;;;;;43.47;33.47;;;;;;;;;;5121083;27;20467;-43
2021/12/13 10:33:52;;;;;;;27.35;24.48;;;;;;;;;;5119442;27;20015;-45
2021/12/13 10:36:17;;;;;;;39.83;32.28;;;;;;;;;;5116316;27;20026;-43
2021/12/13 10:38:45;;;;;;;106.38;85.97;;;;;;;;;;5116573;27;20016;-47
2021/12/13 10:41:13;;;;;;;82.47;73.70;;;;;;;;;;5117206;27;20015;-45
2021/12/13 10:43:41;;;;;;;69.97;62.38;;;;;;;;;;5116754;27;20498;-45
2021/12/13 10:46:12;;;;;;;130.27;102.85;;;;;;;;;;5117340;27;20034;-46
2021/12/13 10:48:44;;;;;;;203.32;166.18;;;;;;;;;;5121311;27;20099;-43
2021/12/13 10:51:22;;;;;;;210.23;159.85;;;;;;;;;;5122779;27;20152;-44
2021/12/13 10:53:50;;;;;;;219.80;173.57;;;;;;;;;;5118516;27;20065;-48
2021/12/13 10:56:17;;;;;;;180.25;130.13;;;;;;;;;;5119868;27;20369;-46
2021/12/13 10:58:45;;;;;;;99.38;80.38;;;;;;;;;;5119876;27;20075;-45
2021/12/13 11:01:13;;;;;;;144.60;114.30;;;;;;;;;;5117554;27;20384;-60
2021/12/13 11:03:39;;;;;;;110.70;76.90;;;;;;;;;;5117989;27;20519;-60
2021/12/13 11:06:06;;;;;;;68.18;53.47;;;;;;;;;;5116447;27;20030;-60
2021/12/13 11:08:32;;;;;;;59.85;36.92;;;;;;;;;;5116430;27;20522;-59
2021/12/13 11:11:00;;;;;;;36.78;25.35;;;;;;;;;;5119452;27;20019;-58
2021/12/13 11:13:27;;;;;;;71.18;44.78;;;;;;;;;;5115834;27;20027;-59
2021/12/13 11:15:54;;;;;;;40.33;26.40;;;;;;;;;;5119665;27;20030;-59
2021/12/13 11:18:27;;;;;;;31.63;21.95;;;;;;;;;;5116819;27;20027;-60
2021/12/13 11:20:53;;;;;;;29.33;25.80;;;;;;;;;;5080337;28;20880;-60
2021/12/13 11:23:20;;;;;;;28.48;25.88;;;;;;;;;;5079860;28;20012;-60
2021/12/13 11:25:57;;;;;;;29.33;23.95;;;;;;;;;;5077206;28;20028;-60
2021/12/13 11:28:23;;;;;;;27.50;23.00;;;;;;;;;;5077906;28;20039;-60
2021/12/13 11:30:50;;;;;;;86.95;72.30;;;;;;;;;;5075930;28;20036;-61
2021/12/13 11:33:38;;;;;;;133.13;119.25;;;;;;;;;;5085269;28;20028;-61
2021/12/13 11:36:09;;;;;;;57.45;51.85;;;;;;;;;;5057173;28;20039;-61
2021/12/13 11:38:34;;;;;;;71.30;64.68;;;;;;;;;;5081424;28;20029;-61
2021/12/13 11:41:09;;;;;;;71.40;60.45;;;;;;;;;;5080701;28;20115;-61
2021/12/13 11:43:52;;;;;;;53.45;42.83;;;;;;;;;;5076067;28;20044;-60
2021/12/13 11:46:17;;;;;;;51.70;36.42;;;;;;;;;;5078153;28;20016;-61
2021/12/13 11:49:03;;;;;;;96.20;71.38;;;;;;;;;;5084689;28;20392;-63
2021/12/13 11:51:43;;;;;;;80.97;59.67;;;;;;;;;;5082361;28;20354;-61
2021/12/13 11:54:27;;;;;;;126.13;112.65;;;;;;;;;;5078419;28;20021;-61
2021/12/13 11:56:52;;;;;;;118.85;101.95;;;;;;;;;;5078385;28;20032;-61
2021/12/13 11:59:36;;;;;;;89.30;60.78;;;;;;;;;;5078249;28;20492;-61
2021/12/13 12:02:08;;;;;;;67.03;51.58;;;;;;;;;;5077180;28;20027;-61
2021/12/13 12:04:52;;;;;;;35.58;27.73;;;;;;;;;;5080204;28;20082;-62
2021/12/13 12:07:30;;;;;;;21.70;17.60;;;;;;;;;;5078664;28;20101;-61
2021/12/13 12:10:04;;;;;;;35.55;29.67;;;;;;;;;;5078991;28;20021;-61
2021/12/13 12:12:47;;;;;;;30.02;18.10;;;;;;;;;;5079314;28;20027;-61
2021/12/13 12:15:13;;;;;;;19.83;14.90;;;;;;;;;;5076540;28;20103;-61
2021/12/13 12:17:39;;;;;;;25.17;18.50;;;;;;;;;;5076950;28;20127;-63
2021/12/13 12:20:13;;;;;;;50.35;30.70;;;;;;;;;;5105296;27;20122;-63
2021/12/13 12:22:47;;;;;;;66.38;46.08;;;;;;;;;;5113872;27;20047;-63
2021/12/13 12:25:12;;;;;;;62.65;49.60;;;;;;;;;;5112427;27;20877;-61
2021/12/13 12:27:38;;;;;;;60.53;47.72;;;;;;;;;;5118042;27;20023;-61
2021/12/13 12:30:08;;;;;;;73.55;56.58;;;;;;;;;;5114781;27;20046;-61
2021/12/13 12:32:36;;;;;;;60.25;46.92;;;;;;;;;;5114955;27;20103;-61
2021/12/13 12:35:13;;;;;;;46.63;34.42;;;;;;;;;;5116583;27;20114;-61
2021/12/13 12:37:53;;;;;;;75.82;50.50;;;;;;;;;;5116760;27;20091;-61
2021/12/13 12:40:22;;;;;;;42.47;26.67;;;;;;;;;;5109819;27;20016;-61
2021/12/13 12:42:48;;;;;;;32.03;23.95;;;;;;;;;;5116080;27;20083;-61
2021/12/13 12:45:17;;;;;;;34.85;19.38;;;;;;;;;;5115096;27;20023;-61
2021/12/13 12:47:57;;;;;;;19.92;15.18;;;;;;;;;;5113377;27;20024;-60
2021/12/13 12:50:29;;;;;;;16.48;14.13;;;;;;;;;;5113500;27;20046;-60
2021/12/13 12:52:54;;;;;;;15.50;13.05;;;;;;;;;;5113431;27;20019;-61
2021/12/13 12:55:24;;;;;;;24.98;12.55;;;;;;;;;;5110445;27;20023;-60
2021/12/13 12:57:50;;;;;;;7.63;5.78;;;;;;;;;;5115981;27;20529;-60
2021/12/13 13:00:20;;;;;;;8.35;5.50;;;;;;;;;;5118904;27;20104;-60
2021/12/13 13:02:45;;;;;;;15.65;6.75;;;;;;;;;;5113893;27;20015;-60
2021/12/13 13:05:12;;;;;;;14.95;7.97;;;;;;;;;;5116114;27;20659;-60
2021/12/13 13:07:38;;;;;;;6.93;3.65;;;;;;;;;;5118942;27;20120;-60
2021/12/13 13:10:24;;;;;;;6.68;4.03;;;;;;;;;;5116484;27;20011;-58
2021/12/13 13:12:51;;;;;;;4.82;3.63;;;;;;;;;;5113541;27;20024;-58
2021/12/13 13:15:16;;;;;;;5.95;2.90;;;;;;;;;;5114751;27;20023;-58
2021/12/13 13:17:47;;;;;;;4.90;4.40;;;;;;;;;;5115948;27;20513;-58
2021/12/13 13:20:25;;;;;;;9.65;4.68;;;;;;;;;;5115452;27;20044;-58
2021/12/13 13:22:52;;;;;;;7.40;4.50;;;;;;;;;;5115826;27;20027;-58
2021/12/13 13:25:20;;;;;;;5.32;3.22;;;;;;;;;;5115106;27;20574;-57
2021/12/13 13:27:46;;;;;;;3.67;2.42;;;;;;;;;;5116431;27;20023;-58
2021/12/13 13:30:21;;;;;;;10.00;3.42;;;;;;;;;;5116782;28;20679;-58
2021/12/13 13:32:47;;;;;;;3.30;1.55;;;;;;;;;;5114626;28;20070;-58
2021/12/13 13:35:13;;;;;;;2.75;1.38;;;;;;;;;;5118509;28;20027;-57
2021/12/13 13:37:40;;;;;;;12.48;1.77;;;;;;;;;;5112439;28;20015;-57
2021/12/13 13:40:08;;;;;;;5.03;1.42;;;;;;;;;;5114746;28;20015;-56
2021/12/13 13:42:37;;;;;;;5.13;2.10;;;;;;;;;;5118040;28;20023;-57
2021/12/13 13:45:32;;;;;;;3.67;1.48;;;;;;;;;;5116406;28;20054;-57
2021/12/13 13:48:08;;;;;;;3.95;2.60;;;;;;;;;;5105894;28;20122;-54
2021/12/13 13:50:41;;;;;;;2.88;1.33;;;;;;;;;;5116879;27;20030;-58
2021/12/13 13:53:18;;;;;;;2.97;1.63;;;;;;;;;;5118299;27;20045;-57
2021/12/13 13:55:44;;;;;;;5.75;3.97;;;;;;;;;;5114753;27;20023;-57
2021/12/13 13:58:18;;;;;;;4.18;2.75;;;;;;;;;;5118865;27;20019;-57
2021/12/13 14:00:52;;;;;;;12.38;3.10;;;;;;;;;;5121316;27;20019;-56
2021/12/13 14:03:23;;;;;;;16.25;3.30;;;;;;;;;;5120130;27;20023;-57
2021/12/13 14:05:52;;;;;;;3.38;1.80;;;;;;;;;;5120325;27;20020;-56
2021/12/13 14:08:22;;;;;;;11.35;6.90;;;;;;;;;;5117855;27;20031;-56
2021/12/13 14:10:48;;;;;;;11.55;6.32;;;;;;;;;;5117270;27;20103;-57
2021/12/13 14:13:17;;;;;;;11.48;7.25;;;;;;;;;;5112479;27;20111;-57
2021/12/13 14:15:44;;;;;;;13.45;9.82;;;;;;;;;;5113604;27;20487;-57
2021/12/13 14:18:16;;;;;;;13.48;8.85;;;;;;;;;;5114168;27;20023;-57
2021/12/13 14:20:47;;;;;;;10.80;6.07;;;;;;;;;;5114391;27;20191;-56
2021/12/13 14:23:12;;;;;;;16.30;6.47;;;;;;;;;;5113601;27;20072;-57
2021/12/13 14:25:39;;;;;;;17.17;8.25;;;;;;;;;;5116604;27;20031;-57
2021/12/13 14:28:06;;;;;;;14.93;10.77;;;;;;;;;;5116262;27;20023;-56
2021/12/13 14:30:46;;;;;;;17.98;10.98;;;;;;;;;;5115867;27;20105;-58
2021/12/13 14:33:21;;;;;;;11.38;8.90;;;;;;;;;;5117867;27;20618;-58
2021/12/13 14:35:52;;;;;;;13.55;9.18;;;;;;;;;;5115760;27;20031;-58
2021/12/13 14:38:17;;;;;;;14.02;10.48;;;;;;;;;;5118772;27;20023;-57
2021/12/13 14:40:48;;;;;;;17.80;11.82;;;;;;;;;;5116228;27;20019;-57
2021/12/13 14:43:33;;;;;;;17.13;10.48;;;;;;;;;;5115062;27;20080;-55
2021/12/13 14:46:00;;;;;;;13.25;9.48;;;;;;;;;;5116762;27;20051;-56
2021/12/13 14:48:27;;;;;;;15.77;10.25;;;;;;;;;;5121769;27;20141;-56
2021/12/13 14:50:54;;;;;;;19.98;14.68;;;;;;;;;;5115051;27;20114;-57